Main page
METAR-TAF:

METAR-TAF

Airports :

RAF Coningsby

Coningsby, England

latitude: 53-05N, longitude: 000-10W, elevation: 7 m

Current weather observation

The report was made 49 minutes ago, at 02:50 UTC
Wind 3 kt from the East/Southeast
Temperature 10°C
Humidity 93%
Pressure 1015 hPa
Visibility 10 km or more

METAR: EGXC 210250Z AUTO 11003KT 9999 NCD 10/09 Q1015

Time: 04:39 (03:39 UTC)

Forecast

The report was made 1 hour and 55 minutes ago, at 01:44 UTC
Forecast valid from 21 at 03 UTC to 21 at 21 UTC
Wind 5 kt from the South/Southwest
Visibility 10 km or more
Scattered clouds at a height of 4000 ft

TAF: EGXC 210144Z 2103/2121 20005KT 9999 SCT040

Weather observations and forecasts of more than 4000 airports (METAR and TAF reports).

The available stations are represented by yellow and red dots on the map.

Hover mouse over dot to see the name of the station.

Then click to see weather observations and forecasts.

To change the map : click on the green buttons with a black cross to zoom in, on the green button with a dash to zoom out, or on the green arrows for adjacent maps.


METAR-TAF: